createdAt,value
2022-12-29T13:21:00.498Z,97886.25
2022-12-29T13:36:13.044Z,97895.45
2022-12-29T13:37:19.937Z,97896.58
2022-12-29T13:38:36.516Z,97895.27
2022-12-29T13:39:40.320Z,97897.27
2022-12-29T13:40:48.199Z,97902.98
2022-12-29T13:41:54.311Z,97903.92
2022-12-29T13:42:58.560Z,97901.91
2022-12-29T13:44:04.599Z,97900.64
2022-12-29T13:45:17.231Z,97900.68
2022-12-29T13:46:34.621Z,97898.64
2022-12-29T13:47:48.410Z,97896.58
2022-12-29T13:48:55.638Z,97899.70
2022-12-29T13:50:02.209Z,97897.65
2022-12-29T13:51:08.823Z,97897.48
2022-12-29T13:52:21.005Z,97892.56
2022-12-29T13:53:36.063Z,97888.34
2022-12-29T13:55:09.270Z,97886.78
2022-12-29T13:56:17.040Z,97887.53
2022-12-29T13:57:43.521Z,97895.45
2022-12-29T13:59:04.602Z,97890.70
2022-12-29T14:00:23.089Z,97891.88
2022-12-29T14:02:05.982Z,97898.29
2022-12-29T14:03:31.347Z,97900.83
2022-12-29T14:04:35.988Z,97899.69
2022-12-29T14:05:37.907Z,97903.02
2022-12-29T14:06:41.687Z,97905.45
2022-12-29T14:07:43.803Z,97905.04
2022-12-29T14:08:46.614Z,97905.23
2022-12-29T14:09:54.315Z,97908.75
2022-12-29T14:10:56.269Z,97910.25
2022-12-29T14:11:59.395Z,97908.75
2022-12-29T14:13:04.540Z,97911.77
2022-12-29T14:14:22.542Z,97912.69
2022-12-29T14:15:27.003Z,97914.08
2022-12-29T14:16:35.689Z,97915.69
2022-12-29T14:17:41.286Z,97915.41
2022-12-29T14:18:45.695Z,97910.89
2022-12-29T14:19:54.106Z,97915.90
2022-12-29T14:21:07.877Z,97914.50
2022-12-29T14:22:12.003Z,97915.79
2022-12-29T14:23:13.735Z,97914.94
2022-12-29T14:24:34.007Z,97914.56
2022-12-29T14:25:59.110Z,97916.11
2022-12-29T14:27:02.197Z,97914.93
2022-12-29T14:28:23.342Z,97917.14
2022-12-29T14:29:25.092Z,97913.11
2022-12-29T14:30:52.317Z,97912.84
2022-12-29T14:31:54.215Z,97910.20
2022-12-29T14:33:05.034Z,97910.37
2022-12-29T14:34:06.767Z,97918.02
2022-12-29T14:35:50.459Z,97918.06
2022-12-29T14:37:04.168Z,97916.63
2022-12-29T14:38:22.559Z,97915.38
2022-12-29T14:39:44.385Z,97911.77
2022-12-29T14:40:48.943Z,97914.14
2022-12-29T14:42:23.594Z,97919.37
2022-12-29T14:43:28.472Z,97918.45
2022-12-29T14:44:30.637Z,97914.58
2022-12-29T14:45:38.445Z,97915.60
2022-12-29T14:46:54.940Z,97914.74
2022-12-29T14:47:58.022Z,97920.98
2022-12-29T14:49:02.247Z,97917.71
2022-12-29T14:50:18.711Z,97918.09
2022-12-29T14:51:31.992Z,97918.99
2022-12-29T14:53:02.928Z,97916.96
2022-12-29T14:54:33.929Z,97919.81
2022-12-29T14:55:48.368Z,97922.77
2022-12-29T14:56:50.335Z,97925.02
2022-12-29T14:58:02.981Z,97928.95
2022-12-29T14:59:11.881Z,97927.45
2022-12-29T15:00:39.764Z,97927.66
2022-12-29T15:01:52.882Z,97930.94
2022-12-29T15:03:22.680Z,97931.85
2022-12-29T15:04:32.451Z,97932.89
2022-12-29T15:05:54.223Z,97928.73
2022-12-29T15:06:56.706Z,97935.30
2022-12-29T15:08:01.154Z,97932.88
2022-12-29T15:09:23.890Z,97933.64
2022-12-29T15:10:36.905Z,97932.34
2022-12-29T15:11:38.803Z,97929.39
2022-12-29T15:12:56.408Z,97930.61
2022-12-29T15:13:58.187Z,97931.11
2022-12-29T15:15:02.435Z,97927.98
2022-12-29T15:16:05.584Z,97927.67
2022-12-29T15:17:25.026Z,97924.44
2022-12-29T15:18:31.168Z,97925.19
2022-12-29T15:19:32.922Z,97920.83
2022-12-29T15:20:34.823Z,97927.88
2022-12-29T15:21:37.819Z,97926.43
2022-12-29T15:22:45.338Z,97923.37
2022-12-29T15:23:47.331Z,97925.89
2022-12-29T15:24:52.933Z,97926.00
2022-12-29T15:26:01.390Z,97922.40
2022-12-29T15:27:06.083Z,97927.13
2022-12-29T15:28:13.008Z,97931.80
2022-12-29T15:29:33.220Z,97926.33
2022-12-29T15:30:35.159Z,97928.20
2022-12-29T15:31:49.658Z,97922.61
2022-12-29T15:32:52.788Z,97931.33
2022-12-29T15:34:09.905Z,97927.52
2022-12-29T15:35:27.055Z,97928.16
2022-12-29T15:36:37.601Z,97923.23
2022-12-29T15:37:39.443Z,97924.33
2022-12-29T15:38:41.299Z,97922.95
2022-12-29T15:39:43.219Z,97923.53
2022-12-29T15:40:47.072Z,97920.58
2022-12-29T15:42:00.527Z,97921.01
2022-12-29T15:43:40.627Z,97919.34
2022-12-29T15:44:47.993Z,97917.19
2022-12-29T15:45:56.317Z,97914.94
2022-12-29T15:46:59.148Z,97916.27
2022-12-29T15:48:01.568Z,97919.45
2022-12-29T15:49:08.640Z,97920.95
2022-12-29T15:50:22.013Z,97917.79
2022-12-29T15:51:38.875Z,97921.98
2022-12-29T15:52:41.586Z,97923.53
2022-12-29T15:53:48.782Z,97920.73
2022-12-29T15:54:53.444Z,97923.53
2022-12-29T15:56:06.949Z,97922.79
2022-12-29T15:57:24.842Z,97924.02
2022-12-29T15:58:29.714Z,97917.25
2022-12-29T15:59:34.494Z,97918.80
2022-12-29T16:00:39.754Z,97921.34
2022-12-29T16:01:43.686Z,97920.75
2022-12-29T16:02:45.979Z,97928.75
2022-12-29T16:03:50.804Z,97928.27
2022-12-29T16:05:16.658Z,97929.82
2022-12-29T16:06:31.882Z,97933.27
2022-12-29T16:07:41.551Z,97931.00
2022-12-29T16:08:43.672Z,97924.88
2022-12-29T16:09:45.793Z,97930.89
2022-12-29T16:10:48.612Z,97928.74
2022-12-29T16:12:16.868Z,97929.12
2022-12-29T16:13:25.186Z,97931.71
2022-12-29T16:14:49.689Z,97934.29
2022-12-29T16:16:17.169Z,97930.41
2022-12-29T16:17:30.455Z,97927.83
2022-12-29T16:18:36.925Z,97932.84
2022-12-29T16:19:42.862Z,97929.94
2022-12-29T16:20:45.081Z,97936.44
2022-12-29T16:21:47.692Z,97937.56
2022-12-29T16:22:59.651Z,97936.77
2022-12-29T16:24:07.807Z,97937.73
2022-12-29T16:25:38.894Z,97932.89
2022-12-29T16:26:51.494Z,97932.08
2022-12-29T16:27:54.139Z,97933.91
2022-12-29T16:29:01.063Z,97937.52
2022-12-29T16:30:07.794Z,97933.80
2022-12-29T16:31:22.168Z,97937.30
2022-12-29T16:32:27.692Z,97941.05
2022-12-29T16:33:40.716Z,97940.73
2022-12-29T16:34:44.094Z,97945.52
2022-12-29T16:35:47.988Z,97944.13
2022-12-29T16:36:59.341Z,97944.98
2022-12-29T16:38:22.947Z,97944.98
2022-12-29T16:39:29.955Z,97940.73
2022-12-29T16:40:31.908Z,97937.52
2022-12-29T16:41:33.960Z,97943.05
2022-12-29T16:42:51.949Z,97945.89
2022-12-29T16:44:14.485Z,97944.55
2022-12-29T16:45:23.310Z,97945.40
2022-12-29T16:46:31.430Z,97947.09
2022-12-29T16:47:33.684Z,97947.62
2022-12-29T16:48:51.479Z,97946.88
2022-12-29T16:49:55.098Z,97945.80
2022-12-29T16:51:13.959Z,97950.19
2022-12-29T16:52:22.608Z,97947.93
2022-12-29T16:53:38.225Z,97950.67
2022-12-29T16:54:42.087Z,97948.84
2022-12-29T16:55:52.546Z,97952.61
2022-12-29T16:56:55.831Z,97953.05
2022-12-29T16:58:00.401Z,97957.61
2022-12-29T16:59:21.615Z,97960.98
2022-12-29T17:00:27.169Z,97962.50
2022-12-29T17:01:29.935Z,97960.41
2022-12-29T17:02:35.711Z,97960.95
2022-12-29T17:03:45.336Z,97962.49
2022-12-29T17:04:49.568Z,97962.34
2022-12-29T17:05:57.070Z,97962.34
2022-12-29T17:06:59.472Z,97957.34
2022-12-29T17:08:02.258Z,97958.73
2022-12-29T17:09:28.708Z,97952.08
2022-12-29T17:10:50.976Z,97958.52
2022-12-29T17:12:02.596Z,97957.06
2022-12-29T17:13:10.606Z,97951.75
2022-12-29T17:14:39.741Z,97953.36
2022-12-29T17:15:41.857Z,97955.67
2022-12-29T17:16:43.773Z,97949.06
2022-12-29T17:17:49.134Z,97951.96
2022-12-29T17:18:51.364Z,97950.45
2022-12-29T17:19:59.954Z,97951.21
2022-12-29T17:21:02.041Z,97953.80
2022-12-29T17:22:10.200Z,97955.45
2022-12-29T17:23:22.749Z,97949.17
2022-12-29T17:24:31.396Z,97952.39
2022-12-29T17:25:37.712Z,97949.80
2022-12-29T17:26:39.713Z,97951.59
2022-12-29T17:27:57.022Z,97951.90
2022-12-29T17:28:58.951Z,97947.50
2022-12-29T17:30:11.888Z,97951.05
2022-12-29T17:31:14.863Z,97954.15
2022-12-29T17:32:16.960Z,97955.23
2022-12-29T17:33:21.339Z,97956.09
2022-12-29T17:34:24.362Z,97956.84
2022-12-29T17:35:27.648Z,97958.40
2022-12-29T17:36:29.552Z,97956.52
2022-12-29T17:37:38.973Z,97956.37
2022-12-29T17:38:41.053Z,97957.33
2022-12-29T17:39:42.989Z,97955.08
2022-12-29T17:40:45.786Z,97957.88
2022-12-29T17:41:48.349Z,97959.15
2022-12-29T17:42:53.954Z,97959.16
2022-12-29T17:44:02.687Z,97957.55
2022-12-29T17:45:05.082Z,97959.25
2022-12-29T17:46:08.659Z,97962.54
2022-12-29T17:47:15.783Z,97962.10
2022-12-29T17:48:19.404Z,97960.23
2022-12-29T17:49:21.325Z,97956.59
2022-12-29T17:50:29.832Z,97960.55
2022-12-29T17:51:32.318Z,97959.27
2022-12-29T17:52:34.627Z,97959.65
2022-12-29T17:53:36.874Z,97960.98
2022-12-29T17:54:46.643Z,97959.65
2022-12-29T17:55:48.604Z,97957.65
2022-12-29T17:56:51.263Z,97956.73
2022-12-29T17:57:54.029Z,97958.78
2022-12-29T17:58:56.723Z,97963.52
2022-12-29T17:59:58.615Z,97960.98
2022-12-29T18:01:03.035Z,97957.34
2022-12-29T18:02:26.225Z,97959.75
2022-12-29T18:03:35.278Z,97959.32
2022-12-29T18:04:37.295Z,97959.86
2022-12-29T18:05:39.019Z,97957.86
2022-12-29T18:06:42.523Z,97966.25
2022-12-29T18:07:45.097Z,97963.13
2022-12-29T18:08:47.463Z,97959.05
2022-12-29T18:09:49.591Z,97966.48
2022-12-29T18:10:54.392Z,97966.20
2022-12-29T18:11:56.571Z,97961.80
2022-12-29T18:13:00.860Z,97958.03
2022-12-29T18:14:02.777Z,97960.02
2022-12-29T18:15:05.633Z,97961.75
2022-12-29T18:16:08.349Z,97959.43
2022-12-29T18:17:13.015Z,97953.45
2022-12-29T18:18:18.107Z,97962.39
2022-12-29T18:19:20.265Z,97958.20
2022-12-29T18:20:22.268Z,97961.84
2022-12-29T18:21:25.188Z,97965.29
2022-12-29T18:22:29.032Z,97962.48
2022-12-29T18:23:35.359Z,97961.45
2022-12-29T18:24:37.090Z,97962.65
2022-12-29T18:25:51.428Z,97957.77
2022-12-29T18:26:53.264Z,97955.55
2022-12-29T18:27:55.163Z,97952.65
2022-12-29T18:28:58.593Z,97949.96
2022-12-29T18:30:00.489Z,97952.83
2022-12-29T18:31:02.608Z,97952.13
2022-12-29T18:32:04.946Z,97952.77
2022-12-29T18:33:06.833Z,97954.48
2022-12-29T18:34:15.528Z,97954.16
2022-12-29T18:35:48.221Z,97950.62
2022-12-29T18:36:50.038Z,97947.30
2022-12-29T18:37:51.854Z,97949.11
2022-12-29T18:38:54.811Z,97949.00
2022-12-29T18:39:57.259Z,97954.31
2022-12-29T18:40:59.808Z,97950.13
2022-12-29T18:42:01.780Z,97959.42
2022-12-29T18:43:04.498Z,97957.66
2022-12-29T18:44:12.848Z,97957.54
2022-12-29T18:45:21.499Z,97960.02
2022-12-29T18:46:23.838Z,97958.88
2022-12-29T18:47:25.902Z,97955.07
2022-12-29T18:48:28.045Z,97958.28
2022-12-29T18:49:30.138Z,97963.34
2022-12-29T18:50:31.939Z,97963.33
2022-12-29T18:51:33.763Z,97960.17
2022-12-29T18:52:35.809Z,97959.73
2022-12-29T18:53:38.088Z,97959.46
2022-12-29T18:54:40.103Z,97962.00
2022-12-29T18:55:42.201Z,97962.36
2022-12-29T18:56:44.056Z,97961.83
2022-12-29T18:57:46.159Z,97961.77
2022-12-29T18:58:48.173Z,97959.41
2022-12-29T18:59:50.201Z,97964.25
2022-12-29T19:00:52.208Z,97961.14
2022-12-29T19:01:54.245Z,97959.35
2022-12-29T19:02:56.094Z,97963.86
2022-12-29T19:03:58.005Z,97963.27
2022-12-29T19:05:06.884Z,97960.29
2022-12-29T19:06:09.972Z,97959.36
2022-12-29T19:07:12.023Z,97959.42
2022-12-29T19:08:13.908Z,97959.95
2022-12-29T19:09:15.702Z,97960.60
2022-12-29T19:10:18.690Z,97956.13
2022-12-29T19:11:20.860Z,97958.17
2022-12-29T19:12:28.196Z,97955.21
2022-12-29T19:13:30.605Z,97950.17
2022-12-29T19:14:32.527Z,97949.47
2022-12-29T19:15:39.829Z,97954.09
2022-12-29T19:16:42.012Z,97955.92
2022-12-29T19:17:43.762Z,97955.05
2022-12-29T19:18:53.357Z,97961.34
2022-12-29T19:20:06.507Z,97957.54
2022-12-29T19:21:08.429Z,97964.45
2022-12-29T19:22:10.333Z,97966.11
2022-12-29T19:23:15.610Z,97967.66
2022-12-29T19:24:17.608Z,97964.88
2022-12-29T19:25:19.496Z,97964.79
2022-12-29T19:26:34.565Z,97965.27
2022-12-29T19:27:36.534Z,97965.30
2022-12-29T19:28:38.351Z,97965.52
2022-12-29T19:29:40.197Z,97961.77
2022-12-29T19:30:41.996Z,97961.44
2022-12-29T19:31:43.929Z,97965.54
2022-12-29T19:32:50.381Z,97972.90
2022-12-29T19:33:53.542Z,97971.99
2022-12-29T19:34:55.311Z,97974.46
2022-12-29T19:36:02.242Z,97963.46
2022-12-29T19:37:04.391Z,97969.41
2022-12-29T19:38:09.136Z,97975.48
2022-12-29T19:39:12.544Z,97970.65
2022-12-29T19:40:19.797Z,97975.21
2022-12-29T19:41:28.095Z,97972.27
2022-12-29T19:42:32.858Z,97973.55
2022-12-29T19:43:36.135Z,97973.55
2022-12-29T19:44:38.096Z,97973.49
2022-12-29T19:45:41.550Z,97974.45
2022-12-29T19:46:43.601Z,97965.60
2022-12-29T19:47:46.435Z,97966.95
2022-12-29T19:48:48.194Z,97969.26
2022-12-29T19:49:50.061Z,97971.45
2022-12-29T19:50:51.794Z,97971.41
2022-12-29T19:51:53.529Z,97970.44
2022-12-29T19:53:04.484Z,97971.46
2022-12-29T19:54:07.104Z,97971.45
2022-12-29T19:55:09.693Z,97972.53
2022-12-29T19:56:12.193Z,97966.52
2022-12-29T19:57:14.110Z,97974.25
2022-12-29T19:58:16.039Z,97973.27
2022-12-29T19:59:17.856Z,97972.21
2022-12-29T20:00:19.863Z,97975.64
2022-12-29T20:01:23.523Z,97975.33
2022-12-29T20:02:29.975Z,97975.42
2022-12-29T20:03:33.156Z,97976.46
2022-12-29T20:04:35.059Z,97973.02
2022-12-29T20:05:37.302Z,97971.71
2022-12-29T20:06:39.123Z,97974.79
2022-12-29T20:07:40.960Z,97975.33
2022-12-29T20:08:43.556Z,97970.97
2022-12-29T20:09:45.935Z,97976.50
2022-12-29T20:10:57.925Z,97974.35
2022-12-29T20:11:59.720Z,97973.64
2022-12-29T20:13:02.664Z,97971.13
2022-12-29T20:14:04.590Z,97972.34
2022-12-29T20:15:09.005Z,97971.96
2022-12-29T20:16:19.773Z,97969.27
2022-12-29T20:17:32.678Z,97969.64
2022-12-29T20:18:44.525Z,97968.99
2022-12-29T20:19:46.592Z,97966.52
2022-12-29T20:20:48.641Z,97968.02
2022-12-29T20:21:50.452Z,97969.24
2022-12-29T20:22:52.217Z,97971.98
2022-12-29T20:23:54.713Z,97968.22
2022-12-29T20:25:25.957Z,97968.75
2022-12-29T20:26:27.810Z,97969.02
2022-12-29T20:27:29.641Z,97967.92
2022-12-29T20:28:31.978Z,97972.09
2022-12-29T20:29:38.737Z,97967.86
2022-12-29T20:30:40.494Z,97967.91
2022-12-29T20:31:43.079Z,97967.69
2022-12-29T20:32:45.226Z,97968.71
2022-12-29T20:33:48.398Z,97971.45
2022-12-29T20:34:50.221Z,97971.17
2022-12-29T20:35:52.528Z,97971.45
2022-12-29T20:36:54.685Z,97968.34
2022-12-29T20:37:56.632Z,97967.31
2022-12-29T20:39:01.665Z,97971.66
2022-12-29T20:40:03.905Z,97971.88
2022-12-29T20:41:06.122Z,97975.67
2022-12-29T20:42:08.307Z,97976.75
2022-12-29T20:43:10.170Z,97979.32
2022-12-29T20:44:13.456Z,97976.70
2022-12-29T20:45:15.189Z,97976.91
2022-12-29T20:46:21.393Z,97979.11
2022-12-29T20:47:24.588Z,97981.31
2022-12-29T20:48:26.898Z,97982.34
2022-12-29T20:49:29.243Z,97980.83
2022-12-29T20:50:31.127Z,97984.85
2022-12-29T20:52:04.369Z,97981.05
2022-12-29T20:52:56.659Z,97978.20
2022-12-29T20:53:58.917Z,97981.30
2022-12-29T20:55:00.746Z,97978.56
2022-12-29T20:56:09.106Z,97983.55
2022-12-29T20:57:11.667Z,97990.36
2022-12-29T20:58:23.487Z,97990.71
2022-12-29T20:59:28.061Z,97994.05
2022-12-29T21:00:32.760Z,97996.27
2022-12-29T21:01:36.487Z,97995.34
2022-12-29T21:02:38.699Z,97994.96
2022-12-29T21:03:40.964Z,97993.61
2022-12-29T21:05:21.619Z,97991.20
2022-12-29T21:06:06.395Z,97992.05
2022-12-29T21:07:08.274Z,97993.60
2022-12-29T21:08:11.574Z,97994.84
2022-12-29T21:09:13.441Z,97996.71
2022-12-29T21:10:15.578Z,97988.71
2022-12-29T21:11:18.901Z,97986.95
2022-12-29T21:12:20.772Z,97992.19
2022-12-29T21:13:22.969Z,97986.66
2022-12-29T21:14:25.001Z,97991.92
2022-12-29T21:15:28.220Z,97994.23
2022-12-29T21:16:30.690Z,97987.45
2022-12-29T21:17:32.731Z,97991.99
2022-12-29T21:18:35.417Z,97995.86
2022-12-29T21:19:37.307Z,97993.60
2022-12-29T21:20:39.919Z,97988.45
2022-12-29T21:21:42.047Z,97989.29
2022-12-29T21:22:44.984Z,97989.94
2022-12-29T21:23:47.200Z,97994.34
2022-12-29T21:24:49.090Z,97988.92
2022-12-29T21:25:51.187Z,97988.43
2022-12-29T21:26:52.909Z,97983.67
2022-12-29T21:27:54.717Z,97984.05
2022-12-29T21:28:56.776Z,97985.98
2022-12-29T21:29:58.844Z,97983.94
2022-12-29T21:31:12.058Z,97987.87
2022-12-29T21:32:13.829Z,97985.23
2022-12-29T21:33:16.808Z,97984.20
2022-12-29T21:34:18.519Z,97984.31
2022-12-29T21:35:20.869Z,97982.81
2022-12-29T21:36:23.080Z,97987.37
2022-12-29T21:37:25.036Z,97987.04
2022-12-29T21:38:29.182Z,97989.08
2022-12-29T21:39:31.527Z,97987.52
2022-12-29T21:40:39.140Z,97991.33
2022-12-29T21:41:40.874Z,97994.53
2022-12-29T21:42:42.792Z,97993.29
2022-12-29T21:44:36.206Z,97991.90
2022-12-29T21:45:38.211Z,98001.33
2022-12-29T21:46:47.032Z,97997.55
2022-12-29T21:48:07.680Z,98002.40
2022-12-29T21:49:10.188Z,98005.50
2022-12-29T21:50:12.101Z,98003.02
2022-12-29T21:51:33.130Z,98002.96
2022-12-29T21:52:34.890Z,98002.80
2022-12-29T21:53:40.190Z,97998.30
2022-12-29T21:55:00.548Z,97997.98
2022-12-29T21:56:02.359Z,97995.57
2022-12-29T21:57:05.410Z,97999.49
2022-12-29T21:58:58.698Z,98000.30
2022-12-29T22:00:20.248Z,98000.67
2022-12-29T22:01:42.369Z,97998.61
2022-12-29T22:03:03.527Z,98005.61
2022-12-29T22:04:24.938Z,98003.98
2022-12-29T22:05:45.312Z,98011.80
2022-12-29T22:07:05.888Z,98011.73
2022-12-29T22:08:26.883Z,98005.77
2022-12-29T22:09:47.764Z,98014.48
2022-12-29T22:11:08.254Z,98010.13
2022-12-29T22:12:28.751Z,98015.58
2022-12-29T22:13:35.829Z,98017.05
2022-12-29T22:14:37.510Z,98020.86
2022-12-29T22:15:40.404Z,98021.06
2022-12-29T22:16:42.578Z,98022.89
2022-12-29T22:17:50.601Z,98016.07
2022-12-29T22:18:52.979Z,98019.57
2022-12-29T22:19:54.836Z,98023.38
2022-12-29T22:20:56.824Z,98015.77
2022-12-29T22:21:58.846Z,98022.85
2022-12-29T22:23:01.084Z,98025.22
2022-12-29T22:24:03.043Z,98018.29
2022-12-29T22:25:06.018Z,98018.73
2022-12-29T22:26:10.855Z,98022.16
2022-12-29T22:27:13.304Z,98022.66
2022-12-29T22:28:15.404Z,98025.05
2022-12-29T22:29:17.236Z,98026.30
2022-12-29T22:30:19.936Z,98027.40
2022-12-29T22:31:28.027Z,98028.10
2022-12-29T22:32:31.948Z,98031.53
2022-12-29T22:33:33.878Z,98031.25
2022-12-29T22:34:35.714Z,98031.32
2022-12-29T22:35:38.060Z,98032.55
2022-12-29T22:36:40.304Z,98035.81
2022-12-29T22:37:45.466Z,98036.16
2022-12-29T22:38:47.259Z,98037.35
2022-12-29T22:39:48.997Z,98041.19
2022-12-29T22:40:50.834Z,98042.86
2022-12-29T22:41:52.702Z,98043.00
2022-12-29T22:42:54.552Z,98034.46
2022-12-29T22:43:56.375Z,98038.38
2022-12-29T22:44:58.306Z,98036.06
2022-12-29T22:46:05.135Z,98041.96
2022-12-29T22:47:07.318Z,98037.98
2022-12-29T22:48:09.403Z,98035.82
2022-12-29T22:49:11.344Z,98034.52
2022-12-29T22:50:13.437Z,98038.55
2022-12-29T22:51:15.289Z,98036.86
2022-12-29T22:52:17.436Z,98032.19
2022-12-29T22:53:19.422Z,98033.36
2022-12-29T22:54:21.873Z,98039.69
2022-12-29T22:55:23.636Z,98033.88
2022-12-29T22:56:25.925Z,98035.00
2022-12-29T22:57:30.359Z,98042.50
2022-12-29T22:58:32.957Z,98039.98
2022-12-29T22:59:34.835Z,98042.65
2022-12-29T23:01:27.984Z,98042.76
2022-12-29T23:02:30.428Z,98042.39
2022-12-29T23:03:32.522Z,98041.15
2022-12-29T23:05:02.375Z,98036.10
2022-12-29T23:06:01.920Z,98035.96
2022-12-29T23:07:05.577Z,98045.31
2022-12-29T23:08:07.283Z,98041.61
2022-12-29T23:09:16.977Z,98037.64
2022-12-29T23:10:18.745Z,98037.89
2022-12-29T23:11:20.658Z,98039.05
2022-12-29T23:12:22.523Z,98047.35
2022-12-29T23:13:24.816Z,98039.84
2022-12-29T23:14:26.840Z,98043.23
2022-12-29T23:15:28.588Z,98040.17
2022-12-29T23:16:30.399Z,98045.73
2022-12-29T23:17:32.588Z,98040.14
2022-12-29T23:18:34.501Z,98041.73
2022-12-29T23:19:36.357Z,98038.93
2022-12-29T23:20:39.501Z,98039.98
2022-12-29T23:21:41.257Z,98044.16
2022-12-29T23:22:43.148Z,98043.88
2022-12-29T23:23:56.272Z,98035.78
2022-12-29T23:24:58.477Z,98042.52
2022-12-29T23:26:01.046Z,98042.98
2022-12-29T23:27:03.034Z,98042.35
2022-12-29T23:28:08.385Z,98038.77
2022-12-29T23:29:15.199Z,98040.10
2022-12-29T23:30:16.944Z,98043.65
2022-12-29T23:31:19.994Z,98039.90
2022-12-29T23:32:22.190Z,98041.95
2022-12-29T23:33:23.932Z,98042.92
2022-12-29T23:34:26.549Z,98038.33
2022-12-29T23:35:28.301Z,98041.48
2022-12-29T23:36:31.194Z,98039.08
2022-12-29T23:37:34.645Z,98041.09
2022-12-29T23:38:36.457Z,98039.17
2022-12-29T23:39:38.359Z,98037.81
2022-12-29T23:40:40.221Z,98038.63
2022-12-29T23:41:41.922Z,98038.89
2022-12-29T23:42:43.800Z,98038.14
2022-12-29T23:43:47.719Z,98038.59
2022-12-29T23:44:49.737Z,98034.95
2022-12-29T23:45:52.171Z,98032.20
2022-12-29T23:46:54.126Z,98030.53
2022-12-29T23:47:55.947Z,98030.25
2022-12-29T23:48:58.057Z,98032.59
2022-12-29T23:49:59.801Z,98030.61
2022-12-29T23:51:01.684Z,98025.88
2022-12-29T23:52:03.495Z,98028.14
2022-12-29T23:53:05.277Z,98026.35
2022-12-29T23:54:07.167Z,98028.44
2022-12-29T23:55:10.837Z,98028.96
2022-12-29T23:56:19.409Z,98026.06
2022-12-29T23:57:21.181Z,98031.63
2022-12-29T23:58:23.952Z,98033.34
2022-12-29T23:59:26.101Z,98029.10
